sensor_id;sensor_type;location;lat;lon;timestamp;pressure;altitude;pressure_sealevel;temperature;humidity
64453;BME280;50813;52.654;6.766;2023-04-28T13:51:42;100882.0;;;14.47;100.0
64453;BME280;50813;52.654;6.766;2023-04-28T13:53:18;100882.0;;;14.49;100.0
64453;BME280;50813;52.654;6.766;2023-04-28T13:54:54;100877.0;;;14.62;100.0
64453;BME280;50813;52.654;6.766;2023-04-28T13:58:06;100872.0;;;14.85;100.0
64453;BME280;50813;52.654;6.766;2023-04-28T13:59:42;100872.0;;;14.76;100.0
64453;BME280;50813;52.654;6.766;2023-04-28T14:01:18;100870.0;;;14.77;100.0
64453;BME280;50813;52.654;6.766;2023-04-28T14:04:31;100868.0;;;14.68;100.0
64453;BME280;50813;52.654;6.766;2023-04-28T14:06:07;100870.0;;;14.71;100.0
64453;BME280;50813;52.654;6.766;2023-04-28T14:07:43;100868.0;;;14.61;100.0
64453;BME280;50813;52.654;6.766;2023-04-28T14:09:19;100873.0;;;14.45;100.0
64453;BME280;50813;52.654;6.766;2023-04-28T14:12:31;100870.0;;;14.36;100.0
64453;BME280;50813;52.654;6.766;2023-04-28T14:14:07;100870.0;;;14.44;100.0
64453;BME280;50813;52.654;6.766;2023-04-28T14:15:44;100873.0;;;14.46;100.0
64453;BME280;50813;52.654;6.766;2023-04-28T14:18:57;100870.0;;;14.36;100.0
64453;BME280;50813;52.654;6.766;2023-04-28T14:20:33;100863.0;;;14.5;100.0
64453;BME280;50813;52.654;6.766;2023-04-28T14:22:09;100865.0;;;14.54;100.0
64453;BME280;50813;52.654;6.766;2023-04-28T14:25:21;100866.0;;;14.45;100.0
64453;BME280;50813;52.654;6.766;2023-04-28T14:26:57;100866.0;;;14.41;100.0
64453;BME280;50813;52.654;6.766;2023-04-28T14:28:34;100866.0;;;14.35;100.0
64453;BME280;50813;52.654;6.766;2023-04-28T14:31:46;100864.0;;;14.29;100.0
64453;BME280;50813;52.654;6.766;2023-04-28T14:33:22;100861.0;;;14.31;100.0
64453;BME280;50813;52.654;6.766;2023-04-28T14:34:58;100860.0;;;14.44;100.0
64453;BME280;50813;52.654;6.766;2023-04-28T14:36:34;100865.0;;;14.42;100.0
64453;BME280;50813;52.654;6.766;2023-04-28T14:39:48;100859.0;;;14.51;100.0
64453;BME280;50813;52.654;6.766;2023-04-28T14:41:24;100858.0;;;14.65;100.0
64453;BME280;50813;52.654;6.766;2023-04-28T14:43:00;100855.0;;;14.59;100.0
64453;BME280;50813;52.654;6.766;2023-04-28T14:46:12;100855.0;;;14.52;100.0
64453;BME280;50813;52.654;6.766;2023-04-28T14:47:48;100861.0;;;14.58;100.0
64453;BME280;50813;52.654;6.766;2023-04-28T14:49:24;100860.0;;;14.5;100.0
64453;BME280;50813;52.654;6.766;2023-04-28T14:52:37;100855.0;;;14.57;100.0
64453;BME280;50813;52.654;6.766;2023-04-28T14:54:13;100850.0;;;14.49;100.0
64453;BME280;50813;52.654;6.766;2023-04-28T14:55:49;100846.0;;;14.44;100.0
64453;BME280;50813;52.654;6.766;2023-04-28T14:57:25;100847.0;;;14.4;100.0
64453;BME280;50813;52.654;6.766;2023-04-28T15:00:38;100848.0;;;14.36;100.0
64453;BME280;50813;52.654;6.766;2023-04-28T15:02:14;100841.0;;;14.49;100.0
64453;BME280;50813;52.654;6.766;2023-04-28T15:03:50;100843.0;;;14.39;100.0
64453;BME280;50813;52.654;6.766;2023-04-28T15:08:39;100839.0;;;14.57;100.0
64453;BME280;50813;52.654;6.766;2023-04-28T15:10:15;100839.0;;;14.54;100.0
64453;BME280;50813;52.654;6.766;2023-04-28T15:13:27;100840.0;;;14.6;100.0
64453;BME280;50813;52.654;6.766;2023-04-28T15:15:05;100838.0;;;14.59;100.0
64453;BME280;50813;52.654;6.766;2023-04-28T15:16:41;100840.0;;;14.63;100.0
64453;BME280;50813;52.654;6.766;2023-04-28T15:18:19;100837.0;;;14.75;100.0
64453;BME280;50813;52.654;6.766;2023-04-28T15:21:32;100837.0;;;14.59;100.0
64453;BME280;50813;52.654;6.766;2023-04-28T15:23:08;100838.0;;;14.59;100.0
64453;BME280;50813;52.654;6.766;2023-04-28T15:24:44;100842.0;;;14.45;100.0
64453;BME280;50813;52.654;6.766;2023-04-28T15:27:56;100840.0;;;14.45;100.0
64453;BME280;50813;52.654;6.766;2023-04-28T15:29:33;100839.0;;;14.35;100.0
64453;BME280;50813;52.654;6.766;2023-04-28T15:31:08;100846.0;;;14.49;100.0
64453;BME280;50813;52.654;6.766;2023-04-28T15:34:20;100843.0;;;14.61;100.0
64453;BME280;50813;52.654;6.766;2023-04-28T15:35:56;100844.0;;;14.53;100.0
64453;BME280;50813;52.654;6.766;2023-04-28T15:37:42;100846.0;;;14.52;100.0
64453;BME280;50813;52.654;6.766;2023-04-28T15:39:18;100848.0;;;14.52;100.0
64453;BME280;50813;52.654;6.766;2023-04-28T15:42:31;100847.0;;;14.46;100.0
64453;BME280;50813;52.654;6.766;2023-04-28T15:44:06;100856.0;;;14.36;100.0
64453;BME280;50813;52.654;6.766;2023-04-28T15:45:43;100853.0;;;14.49;100.0
64453;BME280;50813;52.654;6.766;2023-04-28T15:48:55;100859.0;;;14.41;100.0
64453;BME280;50813;52.654;6.766;2023-04-28T15:50:31;100853.0;;;14.51;100.0
64453;BME280;50813;52.654;6.766;2023-04-28T15:52:07;100849.0;;;14.58;100.0
64453;BME280;50813;52.654;6.766;2023-04-28T15:55:20;100851.0;;;14.57;100.0
64453;BME280;50813;52.654;6.766;2023-04-28T15:56:56;100852.0;;;14.57;100.0
64453;BME280;50813;52.654;6.766;2023-04-28T15:58:34;100855.0;;;14.47;100.0
64453;BME280;50813;52.654;6.766;2023-04-28T16:00:11;100860.0;;;14.36;100.0
64453;BME280;50813;52.654;6.766;2023-04-28T16:03:24;100860.0;;;14.43;100.0
64453;BME280;50813;52.654;6.766;2023-04-28T16:05:00;100866.0;;;14.41;100.0
64453;BME280;50813;52.654;6.766;2023-04-28T16:06:36;100859.0;;;14.43;100.0
64453;BME280;50813;52.654;6.766;2023-04-28T16:09:49;100867.0;;;14.38;100.0
64453;BME280;50813;52.654;6.766;2023-04-28T16:11:25;100868.0;;;14.34;100.0
64453;BME280;50813;52.654;6.766;2023-04-28T16:13:01;100871.0;;;14.19;100.0
64453;BME280;50813;52.654;6.766;2023-04-28T16:16:13;100867.0;;;14.07;100.0
64453;BME280;50813;52.654;6.766;2023-04-28T16:17:49;100867.0;;;14.18;100.0
64453;BME280;50813;52.654;6.766;2023-04-28T16:19:25;100871.0;;;14.15;100.0
64453;BME280;50813;52.654;6.766;2023-04-28T16:22:38;100876.0;;;14.12;100.0
64453;BME280;50813;52.654;6.766;2023-04-28T16:24:15;100876.0;;;13.96;100.0
64453;BME280;50813;52.654;6.766;2023-04-28T16:25:51;100881.0;;;13.85;100.0
64453;BME280;50813;52.654;6.766;2023-04-28T16:27:27;100886.0;;;13.8;100.0
64453;BME280;50813;52.654;6.766;2023-04-28T16:30:39;100880.0;;;13.86;100.0
64453;BME280;50813;52.654;6.766;2023-04-28T16:32:17;100883.0;;;13.72;100.0
64453;BME280;50813;52.654;6.766;2023-04-28T16:33:53;100885.0;;;13.68;100.0
64453;BME280;50813;52.654;6.766;2023-04-28T16:37:07;100883.0;;;13.68;100.0
64453;BME280;50813;52.654;6.766;2023-04-28T16:38:43;100881.0;;;13.63;100.0
64453;BME280;50813;52.654;6.766;2023-04-28T16:40:20;100882.0;;;13.61;100.0
64453;BME280;50813;52.654;6.766;2023-04-28T16:43:32;100886.0;;;13.61;100.0
64453;BME280;50813;52.654;6.766;2023-04-28T16:45:09;100885.0;;;13.59;100.0
64453;BME280;50813;52.654;6.766;2023-04-28T16:46:45;100884.0;;;13.58;100.0
64453;BME280;50813;52.654;6.766;2023-04-28T16:48:22;100881.0;;;13.67;100.0
64453;BME280;50813;52.654;6.766;2023-04-28T16:51:34;100887.0;;;13.49;100.0
64453;BME280;50813;52.654;6.766;2023-04-28T16:53:11;100886.0;;;13.58;100.0
64453;BME280;50813;52.654;6.766;2023-04-28T16:54:47;100886.0;;;13.55;100.0
64453;BME280;50813;52.654;6.766;2023-04-28T16:57:59;100889.0;;;13.61;100.0
64453;BME280;50813;52.654;6.766;2023-04-28T16:59:35;100890.0;;;13.6;100.0
64453;BME280;50813;52.654;6.766;2023-04-28T17:01:12;100891.0;;;13.64;100.0
64453;BME280;50813;52.654;6.766;2023-04-28T17:04:24;100889.0;;;13.62;100.0
64453;BME280;50813;52.654;6.766;2023-04-28T17:06:02;100891.0;;;13.66;100.0
64453;BME280;50813;52.654;6.766;2023-04-28T17:07:39;100891.0;;;13.69;100.0
64453;BME280;50813;52.654;6.766;2023-04-28T17:09:15;100891.0;;;13.68;100.0
64453;BME280;50813;52.654;6.766;2023-04-28T17:12:27;100894.0;;;13.73;100.0
64453;BME280;50813;52.654;6.766;2023-04-28T17:14:04;100893.0;;;13.53;100.0
64453;BME280;50813;52.654;6.766;2023-04-28T17:15:40;100895.0;;;13.61;100.0
64453;BME280;50813;52.654;6.766;2023-04-28T17:18:52;100895.0;;;13.61;100.0
64453;BME280;50813;52.654;6.766;2023-04-28T17:20:28;100894.0;;;13.55;100.0
64453;BME280;50813;52.654;6.766;2023-04-28T17:22:04;100891.0;;;13.58;100.0
64453;BME280;50813;52.654;6.766;2023-04-28T17:25:17;100893.0;;;13.55;100.0
64453;BME280;50813;52.654;6.766;2023-04-28T17:26:54;100889.0;;;13.55;100.0
64453;BME280;50813;52.654;6.766;2023-04-28T17:28:30;100897.0;;;13.44;100.0
64453;BME280;50813;52.654;6.766;2023-04-28T17:30:08;100900.0;;;13.44;100.0
64453;BME280;50813;52.654;6.766;2023-04-28T17:33:20;100898.0;;;13.29;100.0
64453;BME280;50813;52.654;6.766;2023-04-28T17:34:56;100895.0;;;13.39;100.0
64453;BME280;50813;52.654;6.766;2023-04-28T17:36:32;100897.0;;;13.33;100.0
64453;BME280;50813;52.654;6.766;2023-04-28T17:39:45;100897.0;;;13.35;100.0
64453;BME280;50813;52.654;6.766;2023-04-28T17:41:24;100900.0;;;13.28;100.0
64453;BME280;50813;52.654;6.766;2023-04-28T17:43:00;100902.0;;;13.25;100.0
64453;BME280;50813;52.654;6.766;2023-04-28T17:46:12;100905.0;;;13.21;100.0
64453;BME280;50813;52.654;6.766;2023-04-28T17:47:48;100907.0;;;13.19;100.0
64453;BME280;50813;52.654;6.766;2023-04-28T17:49:24;100906.0;;;13.1;100.0
64453;BME280;50813;52.654;6.766;2023-04-28T17:51:00;100909.0;;;13.14;100.0
64453;BME280;50813;52.654;6.766;2023-04-28T17:54:13;100910.0;;;13.1;100.0
64453;BME280;50813;52.654;6.766;2023-04-28T17:55:49;100913.0;;;13.05;100.0
64453;BME280;50813;52.654;6.766;2023-04-28T17:57:25;100913.0;;;13.08;100.0
64453;BME280;50813;52.654;6.766;2023-04-28T18:00:37;100913.0;;;13.09;100.0
64453;BME280;50813;52.654;6.766;2023-04-28T18:02:13;100916.0;;;13.13;100.0
64453;BME280;50813;52.654;6.766;2023-04-28T18:03:49;100913.0;;;13.16;100.0
64453;BME280;50813;52.654;6.766;2023-04-28T18:07:02;100918.0;;;13.1;100.0
64453;BME280;50813;52.654;6.766;2023-04-28T18:08:38;100912.0;;;13.16;100.0
64453;BME280;50813;52.654;6.766;2023-04-28T18:10:14;100913.0;;;13.19;100.0
64453;BME280;50813;52.654;6.766;2023-04-28T18:13:26;100922.0;;;13.08;100.0
64453;BME280;50813;52.654;6.766;2023-04-28T18:15:03;100924.0;;;13.09;100.0
64453;BME280;50813;52.654;6.766;2023-04-28T18:16:38;100921.0;;;13.07;100.0
64453;BME280;50813;52.654;6.766;2023-04-28T18:18:15;100927.0;;;13.03;100.0
64453;BME280;50813;52.654;6.766;2023-04-28T18:21:27;100926.0;;;12.97;100.0
64453;BME280;50813;52.654;6.766;2023-04-28T18:23:05;100932.0;;;12.92;100.0
64453;BME280;50813;52.654;6.766;2023-04-28T18:24:41;100935.0;;;12.79;100.0
64453;BME280;50813;52.654;6.766;2023-04-28T18:27:53;100933.0;;;12.77;100.0
64453;BME280;50813;52.654;6.766;2023-04-28T18:29:29;100935.0;;;12.76;100.0
64453;BME280;50813;52.654;6.766;2023-04-28T18:31:06;100936.0;;;12.78;100.0
64453;BME280;50813;52.654;6.766;2023-04-28T18:34:18;100935.0;;;12.73;100.0
64453;BME280;50813;52.654;6.766;2023-04-28T18:35:58;100937.0;;;12.77;100.0
64453;BME280;50813;52.654;6.766;2023-04-28T18:37:34;100933.0;;;12.8;100.0
64453;BME280;50813;52.654;6.766;2023-04-28T18:39:10;100937.0;;;12.82;100.0
64453;BME280;50813;52.654;6.766;2023-04-28T18:42:23;100940.0;;;12.84;100.0
64453;BME280;50813;52.654;6.766;2023-04-28T18:44:00;100946.0;;;12.87;100.0
64453;BME280;50813;52.654;6.766;2023-04-28T18:45:37;100947.0;;;12.83;100.0
64453;BME280;50813;52.654;6.766;2023-04-28T18:48:50;100938.0;;;12.73;100.0
64453;BME280;50813;52.654;6.766;2023-04-28T18:50:26;100942.0;;;12.68;100.0
64453;BME280;50813;52.654;6.766;2023-04-28T18:52:02;100941.0;;;12.69;100.0
64453;BME280;50813;52.654;6.766;2023-04-28T18:55:15;100942.0;;;12.77;100.0
64453;BME280;50813;52.654;6.766;2023-04-28T18:56:50;100950.0;;;12.69;100.0
64453;BME280;50813;52.654;6.766;2023-04-28T18:58:27;100953.0;;;12.65;100.0
64453;BME280;50813;52.654;6.766;2023-04-28T19:00:03;100956.0;;;12.64;100.0
64453;BME280;50813;52.654;6.766;2023-04-28T19:03:16;100951.0;;;12.64;100.0
64453;BME280;50813;52.654;6.766;2023-04-28T19:04:52;100951.0;;;12.74;100.0
64453;BME280;50813;52.654;6.766;2023-04-28T19:06:28;100955.0;;;12.67;100.0
64453;BME280;50813;52.654;6.766;2023-04-28T19:09:41;100957.0;;;12.71;100.0
64453;BME280;50813;52.654;6.766;2023-04-28T19:11:18;100959.0;;;12.68;100.0
64453;BME280;50813;52.654;6.766;2023-04-28T19:12:54;100964.0;;;12.7;100.0
64453;BME280;50813;52.654;6.766;2023-04-28T19:16:06;100963.0;;;12.6;100.0
64453;BME280;50813;52.654;6.766;2023-04-28T19:17:42;100965.0;;;12.64;100.0
64453;BME280;50813;52.654;6.766;2023-04-28T19:19:18;100969.0;;;12.64;100.0
64453;BME280;50813;52.654;6.766;2023-04-28T19:22:36;100970.0;;;12.69;100.0
64453;BME280;50813;52.654;6.766;2023-04-28T19:24:13;100977.0;;;12.77;100.0
64453;BME280;50813;52.654;6.766;2023-04-28T19:25:49;100981.0;;;12.69;100.0
64453;BME280;50813;52.654;6.766;2023-04-28T19:27:28;100981.0;;;12.57;100.0
64453;BME280;50813;52.654;6.766;2023-04-28T19:30:41;100988.0;;;12.62;100.0
64453;BME280;50813;52.654;6.766;2023-04-28T19:32:17;100998.0;;;12.59;100.0
64453;BME280;50813;52.654;6.766;2023-04-28T19:33:53;100999.0;;;12.6;100.0
64453;BME280;50813;52.654;6.766;2023-04-28T19:37:05;101001.0;;;12.57;100.0
64453;BME280;50813;52.654;6.766;2023-04-28T19:38:42;101003.0;;;12.61;100.0
64453;BME280;50813;52.654;6.766;2023-04-28T19:40:18;101013.0;;;12.65;100.0
64453;BME280;50813;52.654;6.766;2023-04-28T19:41:54;101012.0;;;12.6;100.0
64453;BME280;50813;52.654;6.766;2023-04-28T19:45:08;101014.0;;;12.58;100.0
64453;BME280;50813;52.654;6.766;2023-04-28T19:46:44;101020.0;;;12.67;100.0
64453;BME280;50813;52.654;6.766;2023-04-28T19:48:20;101020.0;;;12.69;100.0
64453;BME280;50813;52.654;6.766;2023-04-28T19:51:34;101023.0;;;12.61;100.0
64453;BME280;50813;52.654;6.766;2023-04-28T19:53:10;101022.0;;;12.54;100.0
64453;BME280;50813;52.654;6.766;2023-04-28T19:54:46;101023.0;;;12.54;100.0
64453;BME280;50813;52.654;6.766;2023-04-28T19:57:58;101023.0;;;12.58;100.0
64453;BME280;50813;52.654;6.766;2023-04-28T19:59:35;101030.0;;;12.6;100.0
64453;BME280;50813;52.654;6.766;2023-04-28T20:01:11;101030.0;;;12.52;100.0
64453;BME280;50813;52.654;6.766;2023-04-28T20:04:24;101031.0;;;12.6;100.0
64453;BME280;50813;52.654;6.766;2023-04-28T20:06:00;101036.0;;;12.62;100.0
64453;BME280;50813;52.654;6.766;2023-04-28T20:07:37;101043.0;;;12.59;100.0
64453;BME280;50813;52.654;6.766;2023-04-28T20:09:13;101047.0;;;12.7;100.0
64453;BME280;50813;52.654;6.766;2023-04-28T20:12:25;101049.0;;;12.63;100.0
64453;BME280;50813;52.654;6.766;2023-04-28T20:14:01;101055.0;;;12.59;100.0
64453;BME280;50813;52.654;6.766;2023-04-28T20:15:38;101059.0;;;12.7;100.0
64453;BME280;50813;52.654;6.766;2023-04-28T20:18:52;101057.0;;;12.59;100.0
64453;BME280;50813;52.654;6.766;2023-04-28T20:20:28;101057.0;;;12.68;100.0
64453;BME280;50813;52.654;6.766;2023-04-28T20:22:04;101060.0;;;12.67;100.0
64453;BME280;50813;52.654;6.766;2023-04-28T20:25:16;101062.0;;;12.53;100.0
64453;BME280;50813;52.654;6.766;2023-04-28T20:26:52;101060.0;;;12.43;100.0
64453;BME280;50813;52.654;6.766;2023-04-28T20:28:28;101061.0;;;12.41;100.0
64453;BME280;50813;52.654;6.766;2023-04-28T20:30:06;101058.0;;;12.29;100.0
64453;BME280;50813;52.654;6.766;2023-04-28T20:33:20;101067.0;;;12.2;100.0
64453;BME280;50813;52.654;6.766;2023-04-28T20:34:56;101066.0;;;12.19;100.0
64453;BME280;50813;52.654;6.766;2023-04-28T20:36:32;101068.0;;;12.22;100.0
64453;BME280;50813;52.654;6.766;2023-04-28T20:39:45;101070.0;;;12.15;100.0
64453;BME280;50813;52.654;6.766;2023-04-28T20:41:22;101067.0;;;12.19;100.0
64453;BME280;50813;52.654;6.766;2023-04-28T20:42:58;101066.0;;;12.27;100.0
64453;BME280;50813;52.654;6.766;2023-04-28T20:46:10;101069.0;;;12.35;100.0
64453;BME280;50813;52.654;6.766;2023-04-28T20:47:47;101071.0;;;12.28;100.0
64453;BME280;50813;52.654;6.766;2023-04-28T20:49:23;101072.0;;;12.34;100.0
64453;BME280;50813;52.654;6.766;2023-04-28T20:51:00;101076.0;;;12.19;100.0
64453;BME280;50813;52.654;6.766;2023-04-28T20:54:13;101077.0;;;12.15;100.0
64453;BME280;50813;52.654;6.766;2023-04-28T20:55:50;101082.0;;;12.17;100.0
64453;BME280;50813;52.654;6.766;2023-04-28T20:57:26;101077.0;;;12.07;100.0
64453;BME280;50813;52.654;6.766;2023-04-28T21:00:38;101078.0;;;12.04;100.0
64453;BME280;50813;52.654;6.766;2023-04-28T21:02:14;101080.0;;;12.04;100.0
64453;BME280;50813;52.654;6.766;2023-04-28T21:03:50;101083.0;;;12.13;100.0
64453;BME280;50813;52.654;6.766;2023-04-28T21:07:03;101085.0;;;12.18;100.0
64453;BME280;50813;52.654;6.766;2023-04-28T21:08:39;101088.0;;;12.17;100.0
64453;BME280;50813;52.654;6.766;2023-04-28T21:10:15;101087.0;;;12.05;100.0
64453;BME280;50813;52.654;6.766;2023-04-28T21:11:51;101091.0;;;12.02;100.0
64453;BME280;50813;52.654;6.766;2023-04-28T21:15:05;101094.0;;;12.08;100.0
64453;BME280;50813;52.654;6.766;2023-04-28T21:16:41;101090.0;;;12.08;100.0
64453;BME280;50813;52.654;6.766;2023-04-28T21:18:18;101098.0;;;12.03;100.0
64453;BME280;50813;52.654;6.766;2023-04-28T21:21:30;101100.0;;;12.08;100.0
64453;BME280;50813;52.654;6.766;2023-04-28T21:23:06;101103.0;;;11.99;100.0
64453;BME280;50813;52.654;6.766;2023-04-28T21:24:42;101110.0;;;12.08;100.0
64453;BME280;50813;52.654;6.766;2023-04-28T21:27:54;101114.0;;;12.04;100.0
64453;BME280;50813;52.654;6.766;2023-04-28T21:29:30;101117.0;;;12.0;100.0
64453;BME280;50813;52.654;6.766;2023-04-28T21:31:07;101119.0;;;11.98;100.0
64453;BME280;50813;52.654;6.766;2023-04-28T21:34:19;101119.0;;;12.07;100.0
64453;BME280;50813;52.654;6.766;2023-04-28T21:35:55;101121.0;;;11.99;100.0
64453;BME280;50813;52.654;6.766;2023-04-28T21:37:32;101125.0;;;11.87;100.0
64453;BME280;50813;52.654;6.766;2023-04-28T21:39:08;101126.0;;;11.89;100.0
64453;BME280;50813;52.654;6.766;2023-04-28T21:42:21;101132.0;;;11.81;100.0
64453;BME280;50813;52.654;6.766;2023-04-28T21:43:57;101132.0;;;11.74;100.0
64453;BME280;50813;52.654;6.766;2023-04-28T21:45:34;101133.0;;;11.73;100.0
64453;BME280;50813;52.654;6.766;2023-04-28T21:48:46;101135.0;;;11.86;100.0
64453;BME280;50813;52.654;6.766;2023-04-28T21:50:22;101134.0;;;11.82;100.0
64453;BME280;50813;52.654;6.766;2023-04-28T21:51:58;101134.0;;;11.81;100.0
64453;BME280;50813;52.654;6.766;2023-04-28T21:55:10;101135.0;;;11.67;100.0
64453;BME280;50813;52.654;6.766;2023-04-28T21:56:46;101133.0;;;11.64;100.0
64453;BME280;50813;52.654;6.766;2023-04-28T21:58:23;101137.0;;;11.72;100.0
64453;BME280;50813;52.654;6.766;2023-04-28T21:59:59;101137.0;;;11.71;100.0
64453;BME280;50813;52.654;6.766;2023-04-28T22:03:11;101136.0;;;11.86;100.0
64453;BME280;50813;52.654;6.766;2023-04-28T22:04:48;101143.0;;;11.82;100.0
64453;BME280;50813;52.654;6.766;2023-04-28T22:06:24;101144.0;;;11.79;100.0
64453;BME280;50813;52.654;6.766;2023-04-28T22:09:37;101143.0;;;11.64;100.0
64453;BME280;50813;52.654;6.766;2023-04-28T22:11:14;101147.0;;;11.65;100.0
64453;BME280;50813;52.654;6.766;2023-04-28T22:12:50;101146.0;;;11.67;100.0
64453;BME280;50813;52.654;6.766;2023-04-28T22:16:03;101143.0;;;11.78;100.0
64453;BME280;50813;52.654;6.766;2023-04-28T22:17:40;101148.0;;;11.8;100.0
64453;BME280;50813;52.654;6.766;2023-04-28T22:19:16;101147.0;;;11.71;100.0
64453;BME280;50813;52.654;6.766;2023-04-28T22:22:28;101149.0;;;11.84;100.0
64453;BME280;50813;52.654;6.766;2023-04-28T22:24:04;101153.0;;;11.79;100.0
64453;BME280;50813;52.654;6.766;2023-04-28T22:25:40;101155.0;;;11.86;100.0
64453;BME280;50813;52.654;6.766;2023-04-28T22:27:16;101155.0;;;11.85;100.0
64453;BME280;50813;52.654;6.766;2023-04-28T22:30:29;101158.0;;;11.79;100.0
64453;BME280;50813;52.654;6.766;2023-04-28T22:32:06;101161.0;;;11.86;100.0
64453;BME280;50813;52.654;6.766;2023-04-28T22:33:42;101166.0;;;11.94;100.0
64453;BME280;50813;52.654;6.766;2023-04-28T22:36:54;101168.0;;;11.73;100.0
64453;BME280;50813;52.654;6.766;2023-04-28T22:38:30;101168.0;;;11.83;100.0
64453;BME280;50813;52.654;6.766;2023-04-28T22:40:07;101169.0;;;11.77;100.0
64453;BME280;50813;52.654;6.766;2023-04-28T22:43:21;101175.0;;;11.75;100.0
64453;BME280;50813;52.654;6.766;2023-04-28T22:44:57;101181.0;;;11.75;100.0
64453;BME280;50813;52.654;6.766;2023-04-28T22:46:33;101182.0;;;11.92;100.0
64453;BME280;50813;52.654;6.766;2023-04-28T22:48:09;101176.0;;;11.81;100.0
64453;BME280;50813;52.654;6.766;2023-04-28T22:51:21;101181.0;;;11.94;100.0
64453;BME280;50813;52.654;6.766;2023-04-28T22:52:58;101183.0;;;11.79;100.0
64453;BME280;50813;52.654;6.766;2023-04-28T22:54:34;101184.0;;;11.87;100.0
64453;BME280;50813;52.654;6.766;2023-04-28T22:57:47;101186.0;;;11.9;100.0
64453;BME280;50813;52.654;6.766;2023-04-28T22:59:23;101190.0;;;11.69;100.0
64453;BME280;50813;52.654;6.766;2023-04-28T23:00:59;101196.0;;;11.79;100.0
64453;BME280;50813;52.654;6.766;2023-04-28T23:04:12;101192.0;;;11.89;100.0
64453;BME280;50813;52.654;6.766;2023-04-28T23:05:48;101191.0;;;11.75;100.0
64453;BME280;50813;52.654;6.766;2023-04-28T23:07:24;101190.0;;;11.83;100.0
64453;BME280;50813;52.654;6.766;2023-04-28T23:09:00;101193.0;;;11.69;100.0
64453;BME280;50813;52.654;6.766;2023-04-28T23:12:13;101197.0;;;11.67;100.0
64453;BME280;50813;52.654;6.766;2023-04-28T23:13:49;101192.0;;;11.59;100.0
64453;BME280;50813;52.654;6.766;2023-04-28T23:15:25;101192.0;;;11.52;100.0
64453;BME280;50813;52.654;6.766;2023-04-28T23:18:37;101193.0;;;11.58;100.0
64453;BME280;50813;52.654;6.766;2023-04-28T23:20:14;101196.0;;;11.61;100.0
64453;BME280;50813;52.654;6.766;2023-04-28T23:21:50;101196.0;;;11.49;100.0
64453;BME280;50813;52.654;6.766;2023-04-28T23:25:03;101196.0;;;11.32;100.0
64453;BME280;50813;52.654;6.766;2023-04-28T23:26:40;101200.0;;;11.4;100.0
64453;BME280;50813;52.654;6.766;2023-04-28T23:28:16;101203.0;;;11.56;100.0
64453;BME280;50813;52.654;6.766;2023-04-28T23:31:28;101207.0;;;11.54;100.0
64453;BME280;50813;52.654;6.766;2023-04-28T23:33:05;101209.0;;;11.49;100.0
64453;BME280;50813;52.654;6.766;2023-04-28T23:34:41;101207.0;;;11.66;100.0
64453;BME280;50813;52.654;6.766;2023-04-28T23:36:18;101205.0;;;11.66;100.0
64453;BME280;50813;52.654;6.766;2023-04-28T23:39:30;101203.0;;;11.61;100.0
64453;BME280;50813;52.654;6.766;2023-04-28T23:41:06;101206.0;;;11.54;100.0
64453;BME280;50813;52.654;6.766;2023-04-28T23:42:42;101208.0;;;11.57;100.0
64453;BME280;50813;52.654;6.766;2023-04-28T23:45:54;101207.0;;;11.52;100.0
64453;BME280;50813;52.654;6.766;2023-04-28T23:47:31;101205.0;;;11.46;100.0
64453;BME280;50813;52.654;6.766;2023-04-28T23:49:08;101205.0;;;11.56;100.0
64453;BME280;50813;52.654;6.766;2023-04-28T23:52:21;101205.0;;;11.39;100.0
64453;BME280;50813;52.654;6.766;2023-04-28T23:53:57;101208.0;;;11.52;100.0
64453;BME280;50813;52.654;6.766;2023-04-28T23:55:33;101207.0;;;11.4;100.0
64453;BME280;50813;52.654;6.766;2023-04-28T23:57:09;101212.0;;;11.32;100.0
